createdAt,value
2023-07-25T00:00:26.038Z,21.57
2023-07-25T00:03:24.700Z,21.78
2023-07-25T00:06:03.480Z,21.55
2023-07-25T00:08:45.774Z,21.56
2023-07-25T00:11:41.652Z,21.58
2023-07-25T00:14:26.212Z,21.67
2023-07-25T00:19:45.592Z,21.52
2023-07-25T00:25:01.504Z,21.44
2023-07-25T00:27:43.576Z,21.46
2023-07-25T00:30:16.551Z,21.54
2023-07-25T00:33:01.211Z,21.55
2023-07-25T00:35:34.095Z,21.55
2023-07-25T00:38:12.871Z,21.56
2023-07-25T00:41:00.113Z,21.54
2023-07-25T00:43:32.880Z,21.56
2023-07-25T00:46:18.106Z,21.46
2023-07-25T00:49:06.856Z,21.48
2023-07-25T00:51:39.979Z,21.49
2023-07-25T00:54:21.501Z,21.55
2023-07-25T00:56:54.230Z,21.58
2023-07-25T00:59:33.233Z,21.40
2023-07-25T01:02:06.294Z,21.58
2023-07-25T01:04:40.692Z,21.33
2023-07-25T01:07:28.708Z,21.59
2023-07-25T01:10:01.591Z,21.51
2023-07-25T01:15:14.801Z,21.42
2023-07-25T01:21:01.127Z,21.36
2023-07-25T01:23:50.017Z,21.59
2023-07-25T01:26:24.222Z,21.52
2023-07-25T01:28:59.804Z,21.46
2023-07-25T01:31:32.862Z,21.43
2023-07-25T01:34:17.674Z,21.47
2023-07-25T01:36:50.436Z,21.50
2023-07-25T01:39:28.649Z,21.43
2023-07-25T01:42:01.341Z,21.39
2023-07-25T01:44:45.387Z,21.51
2023-07-25T01:47:18.179Z,21.49
2023-07-25T01:49:55.178Z,21.47
2023-07-25T01:52:28.028Z,21.30
2023-07-25T01:55:10.571Z,21.43
2023-07-25T02:00:29.757Z,21.37
2023-07-25T02:03:12.199Z,21.34
2023-07-25T02:08:31.597Z,21.43
2023-07-25T02:11:54.531Z,21.53
2023-07-25T02:14:39.635Z,21.28
2023-07-25T02:17:12.544Z,21.29
2023-07-25T02:20:36.355Z,21.50
2023-07-25T02:23:17.853Z,21.34
2023-07-25T02:26:03.810Z,21.38
2023-07-25T02:28:39.570Z,21.32
2023-07-25T02:31:37.549Z,21.48
2023-07-25T02:34:22.459Z,21.22
2023-07-25T02:37:09.697Z,21.43
2023-07-25T02:39:42.426Z,21.24
2023-07-25T02:42:29.321Z,21.39
2023-07-25T02:45:02.421Z,21.21
2023-07-25T02:47:40.287Z,21.30
2023-07-25T02:50:19.252Z,21.17
2023-07-25T02:52:51.980Z,21.28
2023-07-25T02:55:33.776Z,21.26
2023-07-25T02:58:15.365Z,21.24
2023-07-25T03:03:35.807Z,21.26
2023-07-25T03:06:24.096Z,21.37
2023-07-25T03:09:17.172Z,21.13
2023-07-25T03:11:58.430Z,21.24
2023-07-25T03:14:31.170Z,21.18
2023-07-25T03:17:04.313Z,21.13
2023-07-25T03:19:37.160Z,21.30
2023-07-25T03:22:20.306Z,21.11
2023-07-25T03:25:02.588Z,21.25
2023-07-25T03:27:38.445Z,21.20
2023-07-25T03:30:23.461Z,21.23
2023-07-25T03:33:04.787Z,21.23
2023-07-25T03:35:52.926Z,21.13
2023-07-25T03:38:40.499Z,21.23
2023-07-25T03:41:43.269Z,21.13
2023-07-25T03:44:32.767Z,21.37
2023-07-25T03:47:16.727Z,21.22
2023-07-25T03:49:55.251Z,21.19
2023-07-25T03:52:45.628Z,21.10
2023-07-25T03:55:33.887Z,21.23
2023-07-25T03:58:06.708Z,21.09
2023-07-25T04:00:42.437Z,21.11
2023-07-25T04:03:16.010Z,21.15
2023-07-25T04:05:57.489Z,21.17
2023-07-25T04:11:16.884Z,21.08
2023-07-25T04:13:49.777Z,21.17
2023-07-25T04:16:22.602Z,20.94
2023-07-25T04:19:07.349Z,21.05
2023-07-25T04:21:40.140Z,21.13
2023-07-25T04:24:18.743Z,21.15
2023-07-25T04:27:09.249Z,21.09
2023-07-25T04:29:42.021Z,21.14
2023-07-25T04:32:23.673Z,21.07
2023-07-25T04:34:59.239Z,21.13
2023-07-25T04:37:41.294Z,21.03
2023-07-25T04:40:15.036Z,21.04
2023-07-25T04:42:56.626Z,21.02
2023-07-25T04:48:15.950Z,21.11
2023-07-25T04:50:54.786Z,20.98
2023-07-25T04:53:27.670Z,20.88
2023-07-25T04:56:01.390Z,21.09
2023-07-25T04:58:46.200Z,21.06
2023-07-25T05:01:36.226Z,21.16
2023-07-25T05:06:55.603Z,20.93
2023-07-25T05:12:30.010Z,21.05
2023-07-25T05:15:15.096Z,21.04
2023-07-25T05:17:47.917Z,21.06
2023-07-25T05:20:22.011Z,21.11
2023-07-25T05:22:54.655Z,21.33
2023-07-25T05:25:36.425Z,20.93
2023-07-25T05:28:09.136Z,21.01
2023-07-25T05:30:41.890Z,21.05
2023-07-25T05:33:17.830Z,21.06
2023-07-25T05:36:13.164Z,20.98
2023-07-25T05:38:54.111Z,20.90
2023-07-25T05:41:26.974Z,20.99
2023-07-25T05:44:03.060Z,20.93
2023-07-25T05:46:42.252Z,21.06
2023-07-25T05:49:15.101Z,20.87
2023-07-25T05:51:57.504Z,21.02
2023-07-25T05:54:36.281Z,20.99
2023-07-25T05:57:09.110Z,20.95
2023-07-25T05:59:44.964Z,20.87
2023-07-25T06:02:25.515Z,20.93
2023-07-25T06:04:59.061Z,20.84
2023-07-25T06:07:46.939Z,20.95
2023-07-25T06:10:19.618Z,20.94
2023-07-25T06:12:58.728Z,20.85
2023-07-25T06:21:08.543Z,20.93
2023-07-25T06:23:53.116Z,20.89
2023-07-25T06:26:32.043Z,21.02
2023-07-25T06:29:04.874Z,20.86
2023-07-25T06:31:41.774Z,21.06
2023-07-25T06:34:23.188Z,20.89
2023-07-25T06:36:59.332Z,21.02
2023-07-25T06:39:32.364Z,20.87
2023-07-25T06:42:05.616Z,20.87
2023-07-25T06:47:43.691Z,21.04
2023-07-25T06:50:16.404Z,20.89
2023-07-25T06:52:53.936Z,20.88
2023-07-25T06:55:42.245Z,20.86
2023-07-25T06:58:16.072Z,20.98
2023-07-25T07:01:00.719Z,21.10
2023-07-25T07:03:39.669Z,20.94
2023-07-25T07:06:28.862Z,21.03
2023-07-25T07:09:01.824Z,20.88
2023-07-25T07:11:41.898Z,21.05
2023-07-25T07:14:17.727Z,20.97
2023-07-25T07:16:57.129Z,21.05
2023-07-25T07:19:36.046Z,20.94
2023-07-25T07:22:25.016Z,21.05
2023-07-25T07:25:03.840Z,21.01
2023-07-25T07:27:36.513Z,20.98
2023-07-25T07:30:09.670Z,21.05
2023-07-25T07:32:48.546Z,21.13
2023-07-25T07:38:07.860Z,21.06
2023-07-25T07:40:41.719Z,21.10
2023-07-25T07:43:17.396Z,21.17
2023-07-25T07:45:59.638Z,21.11
2023-07-25T07:48:32.433Z,21.18
2023-07-25T07:52:32.850Z,21.31
2023-07-25T07:55:14.496Z,21.23
2023-07-25T07:57:48.149Z,21.10
2023-07-25T08:00:29.967Z,21.18
2023-07-25T08:06:04.341Z,21.10
2023-07-25T08:08:49.349Z,21.19
2023-07-25T08:11:22.011Z,21.16
2023-07-25T08:14:00.764Z,21.05
2023-07-25T08:16:42.829Z,21.07
2023-07-25T08:19:15.619Z,21.15
2023-07-25T08:21:54.793Z,21.16
2023-07-25T08:24:36.616Z,21.18
2023-07-25T08:27:09.816Z,21.05
2023-07-25T08:29:48.490Z,21.24
2023-07-25T08:32:27.494Z,21.09
2023-07-25T08:35:00.504Z,21.24
2023-07-25T08:37:33.884Z,21.17
2023-07-25T08:40:24.144Z,21.11
2023-07-25T08:43:13.003Z,21.11
2023-07-25T08:49:15.096Z,21.09
2023-07-25T08:52:00.729Z,21.16
2023-07-25T08:54:50.606Z,21.29
2023-07-25T08:57:36.201Z,21.30
2023-07-25T09:05:44.279Z,21.16
2023-07-25T09:08:16.977Z,21.22
2023-07-25T09:10:50.189Z,21.24
2023-07-25T09:13:26.623Z,21.22
2023-07-25T09:15:59.476Z,21.27
2023-07-25T09:18:38.391Z,21.16
2023-07-25T09:21:28.174Z,21.16
2023-07-25T09:24:12.983Z,21.28
2023-07-25T09:27:13.615Z,21.22
2023-07-25T09:29:56.057Z,21.21
2023-07-25T09:32:29.433Z,21.23
2023-07-25T09:35:14.222Z,21.25
2023-07-25T09:37:56.883Z,21.25
2023-07-25T09:40:39.278Z,21.28
2023-07-25T09:43:33.384Z,21.40
2023-07-25T09:46:06.307Z,21.32
2023-07-25T09:51:40.544Z,21.37
2023-07-25T09:54:16.326Z,21.33
2023-07-25T09:56:49.126Z,21.35
2023-07-25T09:59:23.734Z,21.27
2023-07-25T10:02:05.064Z,21.26
2023-07-25T10:04:48.776Z,21.40
2023-07-25T10:07:35.024Z,21.33
2023-07-25T10:10:28.011Z,21.36
2023-07-25T10:13:16.365Z,21.37
2023-07-25T10:16:04.492Z,21.38
2023-07-25T10:18:37.654Z,21.43
2023-07-25T10:21:12.958Z,21.38
2023-07-25T10:24:23.695Z,21.50
2023-07-25T10:27:46.269Z,21.56
2023-07-25T10:30:56.432Z,21.39
2023-07-25T10:47:14.126Z,21.71
2023-07-25T10:49:56.889Z,21.50
2023-07-25T10:53:00.678Z,21.76
2023-07-25T10:55:33.541Z,21.63
2023-07-25T10:58:11.017Z,21.51
2023-07-25T11:00:55.698Z,21.59
2023-07-25T11:03:35.749Z,21.72
2023-07-25T11:06:08.626Z,21.72
2023-07-25T11:08:43.670Z,21.69
2023-07-25T11:11:17.870Z,21.65
2023-07-25T11:14:02.619Z,21.70
2023-07-25T11:17:37.493Z,21.69
2023-07-25T11:20:21.424Z,21.80
2023-07-25T11:23:38.585Z,21.75
2023-07-25T11:30:49.004Z,21.99
2023-07-25T11:34:41.727Z,22.04
2023-07-25T11:41:35.256Z,22.07
2023-07-25T11:47:38.427Z,22.00
2023-07-25T11:50:24.443Z,21.98
2023-07-25T11:53:19.093Z,21.91
2023-07-25T11:55:58.961Z,21.77
2023-07-25T11:58:36.361Z,21.86
2023-07-25T12:01:10.352Z,21.79
2023-07-25T12:04:13.419Z,22.20
2023-07-25T12:11:31.134Z,21.96
2023-07-25T12:14:47.808Z,21.99
2023-07-25T12:17:46.624Z,22.11
2023-07-25T12:20:21.350Z,21.85
2023-07-25T12:23:07.444Z,21.99
2023-07-25T12:25:40.083Z,21.89
2023-07-25T12:28:23.212Z,22.08
2023-07-25T12:30:56.184Z,22.07
2023-07-25T12:33:33.365Z,22.10
2023-07-25T12:36:10.177Z,22.09
2023-07-25T12:38:48.074Z,21.93
2023-07-25T12:41:23.017Z,22.08
2023-07-25T12:47:07.055Z,22.06
2023-07-25T12:56:25.211Z,22.31
2023-07-25T13:31:47.293Z,22.47
2023-07-25T13:34:20.545Z,22.40
2023-07-25T13:37:00.210Z,22.38
2023-07-25T13:40:09.333Z,22.33
2023-07-25T13:43:12.497Z,22.49
2023-07-25T13:45:53.415Z,22.35
2023-07-25T14:25:00.792Z,22.70
2023-07-25T14:38:20.398Z,22.58
2023-07-25T14:40:55.532Z,22.54
2023-07-25T14:54:56.793Z,22.81
2023-07-25T14:57:38.281Z,22.96
2023-07-25T15:01:03.503Z,22.86
2023-07-25T15:03:38.757Z,22.97
2023-07-25T15:06:24.440Z,22.73
2023-07-25T15:08:57.518Z,22.57
2023-07-25T15:16:43.201Z,22.97
2023-07-25T15:19:45.755Z,22.58
2023-07-25T15:26:02.522Z,22.72
2023-07-25T15:28:44.274Z,22.75
2023-07-25T15:37:01.730Z,22.73
2023-07-25T15:39:34.910Z,22.67
2023-07-25T15:42:30.658Z,22.68
2023-07-25T15:45:03.888Z,22.65
2023-07-25T15:47:53.026Z,22.72
2023-07-25T15:50:26.395Z,22.70
2023-07-25T15:53:00.908Z,22.59
2023-07-25T15:55:33.744Z,22.69
2023-07-25T16:01:40.160Z,22.85
2023-07-25T16:04:24.973Z,22.75
2023-07-25T16:07:35.652Z,22.83
2023-07-25T16:10:39.140Z,22.66
2023-07-25T16:13:16.201Z,22.70
2023-07-25T16:15:49.052Z,22.66
2023-07-25T16:18:46.280Z,22.88
2023-07-25T16:21:19.071Z,22.60
2023-07-25T16:24:19.390Z,22.87
2023-07-25T16:30:10.115Z,22.63
2023-07-25T16:36:31.424Z,22.79
2023-07-25T16:42:00.829Z,22.75
2023-07-25T16:44:34.843Z,22.68
2023-07-25T16:47:07.646Z,22.75
2023-07-25T16:49:40.692Z,22.80
2023-07-25T17:14:08.398Z,22.75
2023-07-25T17:16:50.215Z,22.81
2023-07-25T17:19:23.107Z,22.69
2023-07-25T17:25:48.013Z,22.84
2023-07-25T17:28:26.957Z,22.69
2023-07-25T18:02:30.064Z,22.91
2023-07-25T18:05:32.813Z,22.73
2023-07-25T18:08:29.646Z,22.62
2023-07-25T18:14:20.900Z,22.77
2023-07-25T18:17:47.705Z,22.88
2023-07-25T18:20:26.557Z,22.71
2023-07-25T18:40:48.431Z,22.74
2023-07-25T18:43:30.388Z,22.69
2023-07-25T18:46:04.206Z,22.56
2023-07-25T18:48:36.919Z,22.55
2023-07-25T18:51:09.680Z,22.48
2023-07-25T18:53:42.590Z,22.52
2023-07-25T18:56:18.048Z,22.55
2023-07-25T18:58:50.954Z,22.54
2023-07-25T19:01:24.038Z,22.50
2023-07-25T19:04:05.929Z,22.59
2023-07-25T19:10:28.640Z,22.50
2023-07-25T19:13:03.797Z,22.54
2023-07-25T19:20:17.351Z,22.70
2023-07-25T19:22:54.605Z,22.60
2023-07-25T19:25:27.352Z,22.39
2023-07-25T19:28:05.847Z,22.51
2023-07-25T19:31:07.312Z,22.34
2023-07-25T19:34:05.723Z,22.36
2023-07-25T19:43:53.617Z,22.53
2023-07-25T19:49:48.757Z,22.50
2023-07-25T19:52:26.429Z,22.41
2023-07-25T19:55:26.045Z,22.29
2023-07-25T19:58:35.941Z,22.44
2023-07-25T20:01:51.569Z,22.37
2023-07-25T20:04:28.838Z,22.29
2023-07-25T20:07:03.957Z,22.36
2023-07-25T20:09:36.692Z,22.32
2023-07-25T20:12:11.975Z,22.34
2023-07-25T20:14:49.748Z,22.38
2023-07-25T20:17:22.600Z,22.39
2023-07-25T20:19:55.534Z,22.29
2023-07-25T20:22:31.196Z,22.20
2023-07-25T20:28:54.719Z,22.25
2023-07-25T20:34:02.594Z,22.35
2023-07-25T20:36:35.639Z,22.12
2023-07-25T20:39:08.439Z,22.20
2023-07-25T20:41:41.170Z,22.09
2023-07-25T20:44:32.745Z,22.21
2023-07-25T20:47:05.764Z,22.21
2023-07-25T20:49:38.549Z,22.24
2023-07-25T20:52:11.396Z,22.20
2023-07-25T20:54:44.241Z,22.07
2023-07-25T20:57:21.697Z,22.25
2023-07-25T20:59:54.917Z,22.13
2023-07-25T21:02:29.141Z,22.13
2023-07-25T21:05:02.155Z,22.23
2023-07-25T21:07:35.379Z,22.10
2023-07-25T21:10:08.643Z,22.16
2023-07-25T21:12:42.373Z,22.20
2023-07-25T21:15:44.434Z,22.31
2023-07-25T21:18:17.465Z,22.08
2023-07-25T21:20:50.476Z,22.04
2023-07-25T21:23:25.294Z,22.08
2023-07-25T21:25:58.049Z,21.99
2023-07-25T21:28:35.590Z,22.07
2023-07-25T21:31:10.414Z,22.15
2023-07-25T21:34:35.021Z,22.23
2023-07-25T21:37:07.807Z,21.96
2023-07-25T21:39:41.825Z,22.35
2023-07-25T21:42:14.702Z,22.15
2023-07-25T21:44:50.252Z,22.13
2023-07-25T21:48:11.750Z,22.22
2023-07-25T21:50:48.064Z,22.05
2023-07-25T21:53:20.867Z,21.91
2023-07-25T21:55:54.895Z,22.08
2023-07-25T21:58:28.752Z,22.29
2023-07-25T22:01:07.854Z,21.95
2023-07-25T22:03:47.630Z,21.96
2023-07-25T22:10:11.346Z,22.15
2023-07-25T22:12:47.733Z,21.90
2023-07-25T22:15:20.813Z,21.91
2023-07-25T22:17:53.864Z,21.83
2023-07-25T22:20:32.031Z,21.92
2023-07-25T22:23:11.318Z,21.94
2023-07-25T22:25:44.029Z,21.81
2023-07-25T22:28:17.758Z,21.90
2023-07-25T22:30:50.513Z,21.92
2023-07-25T22:33:23.461Z,21.85
2023-07-25T22:35:56.215Z,21.83
2023-07-25T22:38:28.943Z,21.83
2023-07-25T22:41:04.503Z,21.80
2023-07-25T22:43:40.082Z,21.80
2023-07-25T22:46:21.459Z,21.76
2023-07-25T22:48:59.628Z,21.79
2023-07-25T22:51:32.336Z,21.77
2023-07-25T22:54:07.765Z,21.73
2023-07-25T22:56:42.726Z,21.73
2023-07-25T22:59:15.590Z,21.78
2023-07-25T23:02:00.337Z,21.74
2023-07-25T23:04:35.400Z,21.69
2023-07-25T23:07:33.122Z,21.94
2023-07-25T23:10:06.556Z,21.72
2023-07-25T23:12:39.297Z,21.69
2023-07-25T23:15:13.167Z,21.66
2023-07-25T23:17:45.989Z,21.70
2023-07-25T23:20:26.936Z,21.83
2023-07-25T23:22:59.655Z,21.80
2023-07-25T23:25:32.359Z,21.73
2023-07-25T23:28:12.574Z,21.66
2023-07-25T23:30:51.017Z,21.74
2023-07-25T23:33:24.086Z,21.78
2023-07-25T23:35:57.119Z,21.67
2023-07-25T23:38:29.898Z,21.72
2023-07-25T23:41:02.650Z,21.59
2023-07-25T23:43:35.366Z,21.72
2023-07-25T23:46:08.144Z,21.67
2023-07-25T23:48:40.817Z,21.72
2023-07-25T23:51:19.334Z,21.66
2023-07-25T23:54:06.879Z,21.72
2023-07-25T23:56:51.976Z,21.74
2023-07-25T23:59:25.038Z,21.68
